< Typhoon 195817 1958 Season Typhoon 195819 >
Typhoon 195818 (NO-NAME)
General InformationTrack Information on Google Maps || Disaster Info.ResourceGoogle EarthGE AnimationAtom FeedGeoJSON
Detalied Best Track (Time Zone = UTC)
Year Month Day Hour Lat. Long. Pressure (hPa) Wind (kt) Class Image Chart
1958 8 25 06 15.0 129.0 1006 0 2 -- Chart
1958 8 25 12 16.2 130.2 1006 0 2 -- Chart
1958 8 25 18 17.3 131.0 1006 0 2 -- Chart
1958 8 26 00 17.9 129.8 1006 0 2 -- Chart
1958 8 26 06 17.9 129.2 1006 0 2 -- Chart
1958 8 26 12 17.9 128.5 1006 0 2 -- Chart
1958 8 26 18 17.9 127.9 1004 0 2 -- Chart
1958 8 27 00 17.8 127.5 1002 0 2 -- Chart
1958 8 27 06 17.7 127.1 1002 0 2 -- Chart
1958 8 27 12 17.7 126.8 1002 0 2 -- Chart
1958 8 27 18 18.0 126.0 1000 0 2 -- Chart
1958 8 28 00 18.8 125.9 1000 0 2 -- Chart
1958 8 28 06 19.5 126.3 1000 0 9 -- Chart
1958 8 28 12 20.5 125.0 1000 0 9 -- Chart
1958 8 28 18 21.3 123.8 1000 0 9 -- Chart
1958 8 29 00 23.0 122.3 1000 0 9 -- Chart
1958 8 29 06 24.0 122.0 994 0 9 -- Chart
1958 8 29 12 24.8 121.6 998 0 9 -- Chart
1958 8 29 18 25.2 120.0 994 0 9 -- Chart
1958 8 30 00 25.5 119.0 996 0 9 -- Chart
1958 8 30 06 25.5 118.2 996 0 9 -- Chart
1958 8 30 12 25.5 117.3 998 0 2 -- Chart
1958 8 30 18 25.2 117.1 998 0 2 -- Chart
1958 8 31 00 24.8 116.7 1000 0 2 -- Chart
Japan Meteorological Agency Best Track Data | Correction Date : 1989-06-01
< Typhoon 195817 1958 Season Typhoon 195819 >

Help